Observation data for Haskell on 08/14/2019      Previous  Date  Next       Current Mesonet Observations  Soil Data  Daily Summary Page  Observations in Plain Language
KHA1 140500Z 05008G13KT 30/20 A3001 RMK A01 T02960195  RH  058%=      5-min Rain = 0
KHA1 140505Z 05010KT 30/20 A3001 RMK A01 T02950195  RH  058%=      5-min Rain = 0
KHA1 140510Z 05010KT 29/20 A3001 RMK A01 T02940195  RH  058%=      5-min Rain = 0
KHA1 140515Z 05010KT 29/20 A3001 RMK A01 T02930195  RH  059%=      5-min Rain = 0
KHA1 140520Z 04010KT 29/19 A3001 RMK A01 T02920194  RH  059%=      5-min Rain = 0
KHA1 140525Z 04010KT 29/19 A3001 RMK A01 T02910194  RH  059%=      5-min Rain = 0
KHA1 140530Z 04009KT 29/19 A3001 RMK A01 T02900194  RH  060%=      5-min Rain = 0
KHA1 140535Z 04009KT 29/19 A3001 RMK A01 T02890194  RH  060%=      5-min Rain = 0
KHA1 140540Z 04009KT 29/19 A3002 RMK A01 T02880193  RH  060%=      5-min Rain = 0
KHA1 140545Z 04012KT 29/19 A3002 RMK A01 T02870193  RH  060%=      5-min Rain = 0
KHA1 140550Z 04010KT 29/19 A3002 RMK A01 T02860194  RH  061%=      5-min Rain = 0
KHA1 140555Z 05008KT 29/19 A3002 RMK A01 T02850194  RH  061%=      5-min Rain = 0
KHA1 140600Z 05006KT 28/19 A3002 RMK A01 T02840194  RH  062%=      5-min Rain = 0
KHA1 140605Z 05008KT 28/20 A3002 RMK A01 T02820196  RH  063%=      5-min Rain = 0
KHA1 140610Z 06009KT 28/20 A3001 RMK A01 T02820198  RH  064%=      5-min Rain = 0
KHA1 140615Z 06008KT 28/20 A3001 RMK A01 T02810199  RH  065%=      5-min Rain = 0
KHA1 140620Z 05009KT 28/20 A3001 RMK A01 T02800199  RH  065%=      5-min Rain = 0
KHA1 140625Z 04009KT 28/20 A3001 RMK A01 T02780199  RH  066%=      5-min Rain = 0
KHA1 140630Z 05008KT 28/20 A3001 RMK A01 T02770200  RH  066%=      5-min Rain = 0
KHA1 140635Z 05006KT 28/20 A3002 RMK A01 T02770200  RH  067%=      5-min Rain = 0
KHA1 140640Z 05008KT 28/20 A3002 RMK A01 T02780201  RH  067%=      5-min Rain = 0
KHA1 140645Z 05009G14KT 28/20 A3002 RMK A01 T02790201  RH  066%=      5-min Rain = 0
KHA1 140650Z 05007G12KT 28/20 A3002 RMK A01 T02800201  RH  066%=      5-min Rain = 0
KHA1 140655Z 05010KT 28/20 A3002 RMK A01 T02790201  RH  066%=      5-min Rain = 0
KHA1 140700Z 04010KT 28/20 A3002 RMK A01 T02780201  RH  067%=      5-min Rain = 0
KHA1 140705Z 04010KT 28/20 A3002 RMK A01 T02780200  RH  066%=      5-min Rain = 0
KHA1 140710Z 04010KT 28/20 A3002 RMK A01 T02780199  RH  066%=      5-min Rain = 0
KHA1 140715Z 04011KT 28/20 A3002 RMK A01 T02780198  RH  065%=      5-min Rain = 0
KHA1 140720Z 04012KT 28/20 A3002 RMK A01 T02780197  RH  065%=      5-min Rain = 0
KHA1 140725Z 04011KT 28/20 A3002 RMK A01 T02780197  RH  065%=      5-min Rain = 0
KHA1 140730Z 05010KT 28/20 A3002 RMK A01 T02760196  RH  065%=      5-min Rain = 0
KHA1 140735Z 05008KT 28/20 A3002 RMK A01 T02750196  RH  066%=      5-min Rain = 0
KHA1 140740Z 05008KT 27/20 A3002 RMK A01 T02740196  RH  066%=      5-min Rain = 0
KHA1 140745Z 05008KT 27/20 A3001 RMK A01 T02730196  RH  066%=      5-min Rain = 0
KHA1 140750Z 04006KT 27/20 A3001 RMK A01 T02720195  RH  066%=      5-min Rain = 0
KHA1 140755Z 04006KT 27/20 A3001 RMK A01 T02710195  RH  067%=      5-min Rain = 0
KHA1 140800Z 03008KT 27/20 A3001 RMK A01 T02680195  RH  068%=      5-min Rain = 0
KHA1 140805Z 03009KT 27/20 A3001 RMK A01 T02680195  RH  068%=      5-min Rain = 0
KHA1 140810Z 02010KT 27/20 A3002 RMK A01 T02670195  RH  068%=      5-min Rain = 0
KHA1 140815Z 03011KT 27/20 A3002 RMK A01 T02680195  RH  068%=      5-min Rain = 0
KHA1 140820Z 03012G18KT 27/20 A3002 RMK A01 T02700195  RH  067%=      5-min Rain = 0
KHA1 140825Z 03012G17KT 27/20 A3002 RMK A01 T02710195  RH  067%=      5-min Rain = 0
KHA1 140830Z 03011KT 27/19 A3002 RMK A01 T02720194  RH  066%=      5-min Rain = 0
KHA1 140835Z 03011KT 27/19 A3001 RMK A01 T02720194  RH  066%=      5-min Rain = 0
KHA1 140840Z 04010KT 27/19 A3002 RMK A01 T02710193  RH  066%=      5-min Rain = 0
KHA1 140845Z 03011KT 27/19 A3002 RMK A01 T02700193  RH  066%=      5-min Rain = 0
KHA1 140850Z 03012KT 27/19 A3002 RMK A01 T02680193  RH  067%=      5-min Rain = 0
KHA1 140855Z 04012KT 27/19 A3002 RMK A01 T02670192  RH  067%=      5-min Rain = 0
KHA1 140900Z 04013KT 27/19 A3002 RMK A01 T02660191  RH  067%=      5-min Rain = 0
KHA1 140905Z 04014KT 27/19 A3002 RMK A01 T02650191  RH  068%=      5-min Rain = 0
KHA1 140910Z 04015KT 27/19 A3002 RMK A01 T02650192  RH  068%=      5-min Rain = 0
KHA1 140915Z 03015KT 26/19 A3002 RMK A01 T02640193  RH  069%=      5-min Rain = 0
KHA1 140920Z 04014G19KT 26/19 A3002 RMK A01 T02620194  RH  070%=      5-min Rain = 0
KHA1 140925Z 04015G20KT 26/20 A3002 RMK A01 T02620196  RH  071%=      5-min Rain = 0
KHA1 140930Z 04014KT 26/20 A3002 RMK A01 T02610197  RH  072%=      5-min Rain = 0
KHA1 140935Z 05014KT 26/20 A3002 RMK A01 T02610198  RH  073%=      5-min Rain = 0
KHA1 140940Z 05014KT 26/20 A3002 RMK A01 T02600199  RH  073%=      5-min Rain = 0
KHA1 140945Z 05014KT 26/20 A3002 RMK A01 T02600198  RH  073%=      5-min Rain = 0
KHA1 140950Z 05013G18KT 26/20 A3002 RMK A01 T02590196  RH  072%=      5-min Rain = 0
KHA1 140955Z 05014G20KT 26/19 A3002 RMK A01 T02580194  RH  071%=      5-min Rain = 0
KHA1 141000Z 04015G20KT 26/19 A3002 RMK A01 T02580192  RH  071%=      5-min Rain = 0
KHA1 141005Z 05015G22KT 26/19 A3003 RMK A01 T02570191  RH  070%=      5-min Rain = 0
KHA1 141010Z 05015G20KT 26/19 A3003 RMK A01 T02560190  RH  071%=      5-min Rain = 0
KHA1 141015Z 05014KT 26/19 A3003 RMK A01 T02560190  RH  071%=      5-min Rain = 0
KHA1 141020Z 05014G20KT 26/19 A3003 RMK A01 T02550191  RH  072%=      5-min Rain = 0
KHA1 141025Z 05014G20KT 25/19 A3003 RMK A01 T02540192  RH  073%=      5-min Rain = 0
KHA1 141030Z 05015G21KT 25/19 A3003 RMK A01 T02520193  RH  074%=      5-min Rain = 0
KHA1 141035Z 05013G18KT 25/19 A3003 RMK A01 T02510193  RH  074%=      5-min Rain = 0
KHA1 141040Z 05013G18KT 25/19 A3003 RMK A01 T02500193  RH  075%=      5-min Rain = 0
KHA1 141045Z 05012G17KT 25/19 A3004 RMK A01 T02490193  RH  075%=      5-min Rain = 0
KHA1 141050Z 05013G19KT 25/19 A3004 RMK A01 T02490194  RH  076%=      5-min Rain = 0
KHA1 141055Z 05012G19KT 25/20 A3004 RMK A01 T02480195  RH  077%=      5-min Rain = 0
KHA1 141100Z 05012G18KT 25/20 A3004 RMK A01 T02470196  RH  077%=      5-min Rain = 0
KHA1 141105Z 05010G16KT 25/20 A3004 RMK A01 T02460196  RH  078%=      5-min Rain = 0
KHA1 141110Z 06011G17KT 25/20 A3005 RMK A01 T02450196  RH  078%=      5-min Rain = 0
KHA1 141115Z 06011KT 25/20 A3004 RMK A01 T02450196  RH  079%=      5-min Rain = 0
KHA1 141120Z 06011KT 24/20 A3004 RMK A01 T02440197  RH  080%=      5-min Rain = 0
KHA1 141125Z 06010KT 24/20 A3004 RMK A01 T02430198  RH  080%=      5-min Rain = 0
KHA1 141130Z 06010KT 24/20 A3004 RMK A01 T02430198  RH  081%=      5-min Rain = 0
KHA1 141135Z 06010KT 24/20 A3005 RMK A01 T02430198  RH  081%=      5-min Rain = 0
KHA1 141140Z 06010G15KT 24/20 A3005 RMK A01 T02440199  RH  081%=      5-min Rain = 0
KHA1 141145Z 05009KT 24/20 A3006 RMK A01 T02440199  RH  080%=      5-min Rain = 0
KHA1 141150Z 05012KT 25/20 A3006 RMK A01 T02450199  RH  080%=      5-min Rain = 0
KHA1 141155Z 04013KT 25/20 A3006 RMK A01 T02460199  RH  080%=      5-min Rain = 0
KHA1 141200Z 04013KT 25/20 A3007 RMK A01 T02450199  RH  080%=      5-min Rain = 0
KHA1 141205Z 04012G18KT 25/20 A3006 RMK A01 T02450198  RH  080%=      5-min Rain = 0
KHA1 141210Z 05011KT 25/20 A3007 RMK A01 T02450198  RH  080%=      5-min Rain = 0
KHA1 141215Z 04011KT 25/20 A3006 RMK A01 T02450198  RH  079%=      5-min Rain = 0
KHA1 141220Z 05009KT 25/20 A3006 RMK A01 T02450198  RH  080%=      5-min Rain = 0
KHA1 141225Z 04011KT 24/20 A3007 RMK A01 T02440199  RH  080%=      5-min Rain = 0
KHA1 141230Z 04010KT 24/20 A3007 RMK A01 T02440199  RH  081%=      5-min Rain = 0
KHA1 141235Z 03009KT 24/20 A3007 RMK A01 T02440200  RH  081%=      5-min Rain = 0
KHA1 141240Z 03009G16KT 24/20 A3007 RMK A01 T02440200  RH  081%=      5-min Rain = 0
KHA1 141245Z 04012KT 24/20 A3007 RMK A01 T02440200  RH  081%=      5-min Rain = 0
KHA1 141250Z 04009KT 24/20 A3008 RMK A01 T02440200  RH  081%=      5-min Rain = 0
KHA1 141255Z 04009KT 24/20 A3008 RMK A01 T02440200  RH  081%=      5-min Rain = 0
KHA1 141300Z 03009KT 24/20 A3008 RMK A01 T02440201  RH  082%=      5-min Rain = 0
KHA1 141305Z 01008KT 24/20 A3009 RMK A01 T02440203  RH  082%=      5-min Rain = 0
KHA1 141310Z 00008KT 24/21 A3008 RMK A01 T02420205  RH  084%=      5-min Rain = 0
KHA1 141315Z 01008KT 24/21 A3008 RMK A01 T02430206  RH  085%=      5-min Rain = 0
KHA1 141320Z 01010KT 24/21 A3009 RMK A01 T02430206  RH  085%=      5-min Rain = 0
KHA1 141325Z 01009KT 24/21 A3009 RMK A01 T02440207  RH  085%=      5-min Rain = 0
KHA1 141330Z 02010KT 25/21 A3009 RMK A01 T02470207  RH  083%=      5-min Rain = 0
KHA1 141335Z 02011KT 25/21 A301 RMK A01 T02470207  RH  083%=      5-min Rain = 0
KHA1 141340Z 02011KT 25/21 A301 RMK A01 T02500207  RH  082%=      5-min Rain = 0
KHA1 141345Z 02010KT 25/21 A301 RMK A01 T02510208  RH  082%=      5-min Rain = 0
KHA1 141350Z 01011KT 25/21 A301 RMK A01 T02510208  RH  082%=      5-min Rain = 0
KHA1 141355Z 01010KT 25/21 A301 RMK A01 T02510209  RH  082%=      5-min Rain = 0
KHA1 141400Z 01011KT 25/21 A3011 RMK A01 T02520209  RH  082%=      5-min Rain = 0
KHA1 141405Z 01011KT 25/21 A3011 RMK A01 T02530209  RH  081%=      5-min Rain = 0
KHA1 141410Z 01011KT 25/21 A3011 RMK A01 T02540210  RH  081%=      5-min Rain = 0
KHA1 141415Z 02011KT 26/21 A3011 RMK A01 T02580210  RH  079%=      5-min Rain = 0
KHA1 141420Z 02010KT 26/21 A3011 RMK A01 T02620212  RH  079%=      5-min Rain = 0
KHA1 141425Z 02011KT 26/21 A3011 RMK A01 T02620211  RH  078%=      5-min Rain = 0
KHA1 141430Z 02010KT 26/21 A3012 RMK A01 T02630212  RH  078%=      5-min Rain = 0
KHA1 141435Z 01010KT 26/21 A3012 RMK A01 T02630213  RH  079%=      5-min Rain = 0
KHA1 141440Z 00009KT 26/21 A3012 RMK A01 T02570211  RH  080%=      5-min Rain = 0
KHA1 141445Z 01009KT 25/21 A3012 RMK A01 T02530209  RH  081%=      5-min Rain = 0
KHA1 141450Z 01010KT 26/21 A3012 RMK A01 T02560209  RH  080%=      5-min Rain = 0
KHA1 141455Z 02010KT 26/21 A3012 RMK A01 T02600210  RH  079%=      5-min Rain = 0
KHA1 141500Z 01009KT 26/21 A3012 RMK A01 T02620210  RH  078%=      5-min Rain = 0
KHA1 141505Z 00007KT 26/21 A3012 RMK A01 T02630212  RH  078%=      5-min Rain = 0
KHA1 141510Z 01008KT 26/21 A3012 RMK A01 T02630211  RH  078%=      5-min Rain = 0
KHA1 141515Z 03007KT 27/21 A3012 RMK A01 T02690208  RH  073%=      5-min Rain = 0
KHA1 141520Z 02008KT 27/21 A3012 RMK A01 T02710209  RH  073%=      5-min Rain = 0
KHA1 141525Z 01008KT 27/21 A3012 RMK A01 T02710211  RH  074%=      5-min Rain = 0
KHA1 141530Z 02007KT 27/21 A3012 RMK A01 T02730210  RH  073%=      5-min Rain = 0
KHA1 141535Z 01006KT 27/21 A3012 RMK A01 T02740210  RH  072%=      5-min Rain = 0
KHA1 141540Z 02007G13KT 28/21 A3012 RMK A01 T02750209  RH  072%=      5-min Rain = 0
KHA1 141545Z 01007KT 27/21 A3012 RMK A01 T02730209  RH  072%=      5-min Rain = 0
KHA1 141550Z 02007KT 28/21 A3012 RMK A01 T02770211  RH  072%=      5-min Rain = 0
KHA1 141555Z 01005KT 28/21 A3012 RMK A01 T02820213  RH  070%=      5-min Rain = 0
KHA1 141600Z 02007KT 28/21 A3012 RMK A01 T02810209  RH  069%=      5-min Rain = 0
KHA1 141605Z 02007G13KT 28/21 A3012 RMK A01 T02780210  RH  071%=      5-min Rain = 0
KHA1 141610Z 02006KT 29/21 A3012 RMK A01 T02860207  RH  066%=      5-min Rain = 0
KHA1 141615Z 02005KT 29/21 A3012 RMK A01 T02900209  RH  065%=      5-min Rain = 0
KHA1 141620Z 03005G11KT 29/21 A3012 RMK A01 T02900205  RH  064%=      5-min Rain = 0
KHA1 141625Z 36004KT 29/21 A3012 RMK A01 T02900209  RH  065%=      5-min Rain = 0
KHA1 141630Z 01006KT 29/21 A3012 RMK A01 T02920212  RH  066%=      5-min Rain = 0
KHA1 141635Z 00005KT 29/21 A3012 RMK A01 T02910211  RH  066%=      5-min Rain = 0
KHA1 141640Z 00005G10KT 29/21 A3012 RMK A01 T02920210  RH  065%=      5-min Rain = 0
KHA1 141645Z 03005G10KT 30/21 A3011 RMK A01 T02970208  RH  062%=      5-min Rain = 0
KHA1 141650Z 35006G12KT 29/21 A3011 RMK A01 T02940213  RH  066%=      5-min Rain = 0
KHA1 141655Z 36007KT 30/21 A3011 RMK A01 T02960214  RH  065%=      5-min Rain = 0
KHA1 141700Z 03007G12KT 30/21 A3011 RMK A01 T02990209  RH  062%=      5-min Rain = 0
KHA1 141705Z 00005KT 30/21 A301 RMK A01 T02990211  RH  063%=      5-min Rain = 0
KHA1 141710Z 01006G11KT 30/21 A301 RMK A01 T02980213  RH  064%=      5-min Rain = 0
KHA1 141715Z 36008G13KT 30/21 A3011 RMK A01 T03020213  RH  063%=      5-min Rain = 0
KHA1 141720Z 00009KT 30/22 A3011 RMK A01 T02990216  RH  065%=      5-min Rain = 0
KHA1 141725Z 00008KT 30/21 A3011 RMK A01 T03020213  RH  063%=      5-min Rain = 0
KHA1 141730Z 36007KT 30/21 A301 RMK A01 T03030212  RH  062%=      5-min Rain = 0
KHA1 141735Z 35006KT 30/21 A301 RMK A01 T03030212  RH  062%=      5-min Rain = 0
KHA1 141740Z 01009G14KT 31/21 A301 RMK A01 T03050210  RH  061%=      5-min Rain = 0
KHA1 141745Z 00004KT 31/21 A301 RMK A01 T03080206  RH  058%=      5-min Rain = 0
KHA1 141750Z 02005KT 31/21 A301 RMK A01 T03120208  RH  058%=      5-min Rain = 0
KHA1 141755Z 36006G11KT 31/21 A301 RMK A01 T03110210  RH  058%=      5-min Rain = 0
KHA1 141800Z 03007G12KT 32/21 A301 RMK A01 T03150205  RH  055%=      5-min Rain = 0
KHA1 141805Z 03009KT 32/20 A3009 RMK A01 T03180202  RH  053%=      5-min Rain = 0
KHA1 141810Z 05006KT 32/20 A3009 RMK A01 T03180201  RH  053%=      5-min Rain = 0
KHA1 141815Z 02009KT 32/21 A3009 RMK A01 T03190206  RH  054%=      5-min Rain = 0
KHA1 141820Z 01006KT 32/21 A3008 RMK A01 T03190210  RH  056%=      5-min Rain = 0
KHA1 141825Z 00008KT 32/21 A3008 RMK A01 T03200210  RH  056%=      5-min Rain = 0
KHA1 141830Z 01007KT 32/21 A3008 RMK A01 T03190206  RH  055%=      5-min Rain = 0
KHA1 141835Z 04008KT 32/20 A3008 RMK A01 T03240202  RH  052%=      5-min Rain = 0
KHA1 141840Z 03009G15KT 33/20 A3008 RMK A01 T03270201  RH  050%=      5-min Rain = 0
KHA1 141845Z 03009KT 33/20 A3007 RMK A01 T03260201  RH  051%=      5-min Rain = 0
KHA1 141850Z 07008G13KT 33/20 A3007 RMK A01 T03270198  RH  049%=      5-min Rain = 0
KHA1 141855Z 03007G12KT 33/20 A3007 RMK A01 T03260199  RH  050%=      5-min Rain = 0
KHA1 141900Z 07009G14KT 33/20 A3006 RMK A01 T03290197  RH  048%=      5-min Rain = 0
KHA1 141905Z 05007KT 33/20 A3006 RMK A01 T03290196  RH  048%=      5-min Rain = 0
KHA1 141910Z 05008G13KT 33/19 A3006 RMK A01 T03330193  RH  046%=      5-min Rain = 0
KHA1 141915Z 06008G13KT 33/19 A3006 RMK A01 T03310194  RH  047%=      5-min Rain = 0
KHA1 141920Z 04011G16KT 34/19 A3005 RMK A01 T03360191  RH  045%=      5-min Rain = 0
KHA1 141925Z 03011KT 34/19 A3005 RMK A01 T03380192  RH  045%=      5-min Rain = 0
KHA1 141930Z 02008KT 34/20 A3005 RMK A01 T03380201  RH  047%=      5-min Rain = 0
KHA1 141935Z 06010G16KT 34/19 A3005 RMK A01 T03360193  RH  046%=      5-min Rain = 0
KHA1 141940Z 07007KT 33/19 A3005 RMK A01 T03340192  RH  046%=      5-min Rain = 0
KHA1 141945Z 06006G11KT 34/19 A3004 RMK A01 T03370194  RH  046%=      5-min Rain = 0
KHA1 141950Z 03010G15KT 33/20 A3004 RMK A01 T03340197  RH  047%=      5-min Rain = 0
KHA1 141955Z 04010KT 34/19 A3004 RMK A01 T03400190  RH  044%=      5-min Rain = 0
KHA1 142000Z 07009G14KT 34/19 A3004 RMK A01 T03380190  RH  044%=      5-min Rain = 0
KHA1 142005Z 06009G14KT 34/19 A3004 RMK A01 T03400188  RH  043%=      5-min Rain = 0
KHA1 142010Z 07007G16KT 34/19 A3004 RMK A01 T03410191  RH  044%=      5-min Rain = 0
KHA1 142015Z 05010G15KT 34/19 A3004 RMK A01 T03440185  RH  041%=      5-min Rain = 0
KHA1 142020Z 06010G18KT 34/19 A3003 RMK A01 T03410186  RH  042%=      5-min Rain = 0
KHA1 142025Z 07009G16KT 34/19 A3003 RMK A01 T03420185  RH  042%=      5-min Rain = 0
KHA1 142030Z 05007KT 34/19 A3002 RMK A01 T03420187  RH  042%=      5-min Rain = 0
KHA1 142035Z 05009G16KT 35/19 A3002 RMK A01 T03450186  RH  041%=      5-min Rain = 0
KHA1 142040Z 06009G14KT 34/18 A3001 RMK A01 T03430184  RH  041%=      5-min Rain = 0
KHA1 142045Z 04008G14KT 35/19 A3001 RMK A01 T03470189  RH  042%=      5-min Rain = 0
KHA1 142050Z 06010G17KT 35/18 A3001 RMK A01 T03460182  RH  040%=      5-min Rain = 0
KHA1 142055Z 03009KT 35/19 A30 RMK A01 T03460187  RH  041%=      5-min Rain = 0
KHA1 142100Z 07010KT 34/18 A30 RMK A01 T03430183  RH  041%=      5-min Rain = 0
KHA1 142105Z 09009KT 35/18 A30 RMK A01 T03470179  RH  039%=      5-min Rain = 0
KHA1 142110Z 06009G17KT 35/18 A30 RMK A01 T03510184  RH  039%=      5-min Rain = 0
KHA1 142115Z 03009KT 35/19 A2999 RMK A01 T03500185  RH  040%=      5-min Rain = 0
KHA1 142120Z 04009G15KT 35/18 A2999 RMK A01 T03510184  RH  039%=      5-min Rain = 0
KHA1 142125Z 04009G14KT 35/19 A2999 RMK A01 T03520185  RH  040%=      5-min Rain = 0
KHA1 142130Z 04010G17KT 35/19 A2998 RMK A01 T03540186  RH  039%=      5-min Rain = 0
KHA1 142135Z 05009G16KT 36/19 A2998 RMK A01 T03560187  RH  039%=      5-min Rain = 0
KHA1 142140Z 07009G14KT 35/19 A2998 RMK A01 T03490186  RH  040%=      5-min Rain = 0
KHA1 142145Z 07010G15KT 35/18 A2998 RMK A01 T03490184  RH  040%=      5-min Rain = 0
KHA1 142150Z 09009G14KT 35/19 A2998 RMK A01 T03460186  RH  041%=      5-min Rain = 0
KHA1 142155Z 09008G14KT 35/19 A2998 RMK A01 T03480188  RH  041%=      5-min Rain = 0
KHA1 142200Z 09008G13KT 35/19 A2998 RMK A01 T03500187  RH  041%=      5-min Rain = 0
KHA1 142205Z 09008G14KT 35/19 A2998 RMK A01 T03510186  RH  040%=      5-min Rain = 0
KHA1 142210Z 09007G12KT 35/19 A2998 RMK A01 T03530185  RH  039%=      5-min Rain = 0
KHA1 142215Z 05009G17KT 35/18 A2998 RMK A01 T03500181  RH  039%=      5-min Rain = 0
KHA1 142220Z 05009G15KT 35/18 A2998 RMK A01 T03540179  RH  038%=      5-min Rain = 0
KHA1 142225Z 08007G13KT 36/18 A2998 RMK A01 T03550181  RH  038%=      5-min Rain = 0
KHA1 142230Z 09008G13KT 35/18 A2998 RMK A01 T03510182  RH  039%=      5-min Rain = 0
KHA1 142235Z 07009G14KT 35/18 A2998 RMK A01 T03530178  RH  038%=      5-min Rain = 0
KHA1 142240Z 06010KT 35/18 A2997 RMK A01 T03530176  RH  037%=      5-min Rain = 0
KHA1 142245Z 06009G15KT 35/18 A2997 RMK A01 T03500178  RH  038%=      5-min Rain = 0
KHA1 142250Z 06007KT 35/18 A2997 RMK A01 T03510179  RH  038%=      5-min Rain = 0
KHA1 142255Z 06011KT 35/18 A2998 RMK A01 T03520180  RH  038%=      5-min Rain = 0
KHA1 142300Z 06011G16KT 35/18 A2998 RMK A01 T03520180  RH  038%=      5-min Rain = 0
KHA1 142305Z 06012KT 35/18 A2998 RMK A01 T03480178  RH  039%=      5-min Rain = 0
KHA1 142310Z 06009KT 35/18 A2998 RMK A01 T03480177  RH  038%=      5-min Rain = 0
KHA1 142315Z 06010KT 35/18 A2998 RMK A01 T03490176  RH  038%=      5-min Rain = 0
KHA1 142320Z 08006KT 35/18 A2998 RMK A01 T03490177  RH  038%=      5-min Rain = 0
KHA1 142325Z 07008G15KT 35/18 A2998 RMK A01 T03510180  RH  038%=      5-min Rain = 0
KHA1 142330Z 06009KT 35/18 A2998 RMK A01 T03480181  RH  039%=      5-min Rain = 0
KHA1 142335Z 07006G12KT 35/18 A2998 RMK A01 T03450183  RH  040%=      5-min Rain = 0
KHA1 142340Z 06010KT 35/18 A2998 RMK A01 T03470181  RH  040%=      5-min Rain = 0
KHA1 142345Z 05009G15KT 35/18 A2998 RMK A01 T03470182  RH  040%=      5-min Rain = 0
KHA1 142350Z 08009G15KT 35/18 A2998 RMK A01 T03470183  RH  040%=      5-min Rain = 0
KHA1 142355Z 07009G14KT 34/18 A2998 RMK A01 T03440180  RH  040%=      5-min Rain = 0
KHA1 150000Z 06008KT 34/18 A2998 RMK A01 T03420176  RH  039%=      5-min Rain = 0
KHA1 150005Z 07008KT 34/18 A2998 RMK A01 T03430182  RH  041%=      5-min Rain = 0
KHA1 150010Z 08007KT 34/18 A2998 RMK A01 T03410181  RH  041%=      5-min Rain = 0
KHA1 150015Z 07007G12KT 34/18 A2998 RMK A01 T03410181  RH  041%=      5-min Rain = 0
KHA1 150020Z 08008KT 34/18 A2998 RMK A01 T03400182  RH  041%=      5-min Rain = 0
KHA1 150025Z 09007KT 34/18 A2998 RMK A01 T03380182  RH  042%=      5-min Rain = 0
KHA1 150030Z 06008KT 34/18 A2998 RMK A01 T03370180  RH  042%=      5-min Rain = 0
KHA1 150035Z 06009KT 34/18 A2998 RMK A01 T03350180  RH  042%=      5-min Rain = 0
KHA1 150040Z 07009KT 33/18 A2998 RMK A01 T03340181  RH  043%=      5-min Rain = 0
KHA1 150045Z 07007KT 33/18 A2998 RMK A01 T03330180  RH  042%=      5-min Rain = 0
KHA1 150050Z 07006G11KT 33/18 A2998 RMK A01 T03330179  RH  042%=      5-min Rain = 0
KHA1 150055Z 07007KT 33/18 A2998 RMK A01 T03310180  RH  043%=      5-min Rain = 0
KHA1 150100Z 06007KT 33/18 A2999 RMK A01 T03300181  RH  043%=      5-min Rain = 0
KHA1 150105Z 07006KT 33/18 A2999 RMK A01 T03280181  RH  044%=      5-min Rain = 0
KHA1 150110Z 07007KT 33/18 A2999 RMK A01 T03270180  RH  044%=      5-min Rain = 0
KHA1 150115Z 07006KT 33/18 A2999 RMK A01 T03250180  RH  044%=      5-min Rain = 0
KHA1 150120Z 06006KT 32/18 A2999 RMK A01 T03230180  RH  045%=      5-min Rain = 0
KHA1 150125Z 06005KT 32/18 A30 RMK A01 T03210181  RH  046%=      5-min Rain = 0
KHA1 150130Z 07005KT 32/18 A30 RMK A01 T03190182  RH  047%=      5-min Rain = 0
KHA1 150135Z 07005KT 32/18 A30 RMK A01 T03170183  RH  047%=      5-min Rain = 0
KHA1 150140Z 06006KT 32/18 A3001 RMK A01 T03160184  RH  048%=      5-min Rain = 0
KHA1 150145Z 06005KT 32/19 A3001 RMK A01 T03150185  RH  049%=      5-min Rain = 0
KHA1 150150Z 08004KT 31/19 A3001 RMK A01 T03110186  RH  050%=      5-min Rain = 0
KHA1 150155Z 07004KT 31/19 A3001 RMK A01 T03090186  RH  051%=      5-min Rain = 0
KHA1 150200Z 07004KT 31/19 A3001 RMK A01 T03070185  RH  051%=      5-min Rain = 0
KHA1 150205Z 07005KT 31/19 A3002 RMK A01 T03060185  RH  051%=      5-min Rain = 0
KHA1 150210Z 07004KT 31/19 A3002 RMK A01 T03050185  RH  051%=      5-min Rain = 0
KHA1 150215Z 07005KT 30/18 A3003 RMK A01 T03040184  RH  052%=      5-min Rain = 0
KHA1 150220Z 07005KT 30/18 A3003 RMK A01 T03030184  RH  052%=      5-min Rain = 0
KHA1 150225Z 07005KT 30/18 A3003 RMK A01 T03040184  RH  051%=      5-min Rain = 0
KHA1 150230Z 07005KT 31/19 A3004 RMK A01 T03050185  RH  051%=      5-min Rain = 0
KHA1 150235Z 07005KT 30/18 A3004 RMK A01 T03030184  RH  052%=      5-min Rain = 0
KHA1 150240Z 07004KT 30/18 A3004 RMK A01 T03000184  RH  053%=      5-min Rain = 0
KHA1 150245Z 07005KT 30/18 A3004 RMK A01 T02980184  RH  053%=      5-min Rain = 0
KHA1 150250Z 07005KT 30/18 A3005 RMK A01 T02970184  RH  053%=      5-min Rain = 0
KHA1 150255Z 07005KT 30/18 A3005 RMK A01 T02970183  RH  053%=      5-min Rain = 0
KHA1 150300Z 07005KT 30/18 A3005 RMK A01 T02960183  RH  054%=      5-min Rain = 0
KHA1 150305Z 08005KT 30/18 A3005 RMK A01 T02950183  RH  054%=      5-min Rain = 0
KHA1 150310Z 08005KT 30/18 A3005 RMK A01 T02950183  RH  054%=      5-min Rain = 0
KHA1 150315Z 08005KT 30/18 A3006 RMK A01 T02950183  RH  054%=      5-min Rain = 0
KHA1 150320Z 08005KT 29/18 A3006 RMK A01 T02940183  RH  054%=      5-min Rain = 0
KHA1 150325Z 08005KT 29/18 A3006 RMK A01 T02940183  RH  054%=      5-min Rain = 0
KHA1 150330Z 08004KT 29/18 A3006 RMK A01 T02920183  RH  055%=      5-min Rain = 0
KHA1 150335Z 08005KT 29/18 A3006 RMK A01 T02910183  RH  055%=      5-min Rain = 0
KHA1 150340Z 07005KT 29/18 A3006 RMK A01 T02900183  RH  055%=      5-min Rain = 0
KHA1 150345Z 07005KT 29/18 A3006 RMK A01 T02880183  RH  056%=      5-min Rain = 0
KHA1 150350Z 08005KT 29/18 A3006 RMK A01 T02870184  RH  057%=      5-min Rain = 0
KHA1 150355Z 07005KT 29/18 A3007 RMK A01 T02860184  RH  057%=      5-min Rain = 0
KHA1 150400Z 08005KT 29/19 A3007 RMK A01 T02850185  RH  058%=      5-min Rain = 0
KHA1 150405Z 08005KT 29/19 A3007 RMK A01 T02850186  RH  058%=      5-min Rain = 0
KHA1 150410Z 08006KT 29/19 A3007 RMK A01 T02850186  RH  058%=      5-min Rain = 0
KHA1 150415Z 08005KT 29/19 A3007 RMK A01 T02850186  RH  058%=      5-min Rain = 0
KHA1 150420Z 09006KT 28/19 A3007 RMK A01 T02840186  RH  058%=      5-min Rain = 0
KHA1 150425Z 09006KT 28/19 A3007 RMK A01 T02830187  RH  059%=      5-min Rain = 0
KHA1 150430Z 09006KT 28/19 A3007 RMK A01 T02830187  RH  059%=      5-min Rain = 0
KHA1 150435Z 08006KT 28/19 A3007 RMK A01 T02830187  RH  059%=      5-min Rain = 0
KHA1 150440Z 09006KT 28/19 A3008 RMK A01 T02830188  RH  060%=      5-min Rain = 0
KHA1 150445Z 09006KT 28/19 A3008 RMK A01 T02830189  RH  060%=      5-min Rain = 0
KHA1 150450Z 09006KT 28/19 A3007 RMK A01 T02820189  RH  060%=      5-min Rain = 0
KHA1 150455Z 09007KT 28/19 A3007 RMK A01 T02820190  RH  061%=      5-min Rain = 0

Page generated in 0.0099 seconds.